Nearby METAR Reports

 

EGKA - Shoreham-By-Sea, United Kingdom
Distance from station: SW 9mi, 14km
Updated: Sun, 21-Jan-2018 10:20am GMT
Light rain, Drizzle, Mist, Mostly cloudy
Light rain, Drizzle, Mist, Mostly cloudy
 Wind from E
Wind: E 12 mph , 19 km/h
Temperature: 4°C
Wind Chill: 0°C
Dew Point: 3°C
Humidity: 93%
Barometer: 1015 hPa
Summary: Light rain, Drizzle, Mist
Clouds: Mostly Cloudy
Visibility: 2 miles , 4 km
Cloud details: Mostly Cloudy 213 m
2018/01/21 10:20 EGKA 211020Z 10010KT 4000 -RADZ BR BKN007 04/03 Q1015
EGKK - London/Gatwick A, United Kingdom
Distance from station: N 14mi, 22km
Updated: Sun, 21-Jan-2018 10:20am GMT
Light snow, Mostly cloudy
Light snow, Mostly cloudy
 Wind from ESE
Wind: ESE 7 mph , 11 km/h
Temperature: 1°C
Wind Chill: -2°C
Dew Point: 1°C
Humidity: 100%
Barometer: 1015 hPa
Summary: Light Snow
Clouds: Mostly Cloudy
Visibility: 2 miles , 3 km
Cloud details: Few Clouds 122 m
Mostly Cloudy 518 m
Mostly Cloudy 671 m
2018/01/21 10:20 EGKK 211020Z 12006KT 3100 -SN FEW004 BKN017 BKN022 01/01 Q1015
 
EGKB - Biggin Hill, United Kingdom
Distance from station: NNE 28mi, 44km
Updated: Sun, 21-Jan-2018 10:20am GMT
Light snow, Mist, Mostly cloudy
Light snow, Mist, Mostly cloudy
 Wind from SE
Wind: SE 8 mph , 13 km/h
Temperature: 1°C
Wind Chill: -3°C
Dew Point: 0°C
Humidity: 93%
Barometer: 1014 hPa
Summary: Light snow, Mist
Clouds: Mostly Cloudy
Visibility: 1 mile , 2 km
Cloud details: Partly Cloudy 152 m
Mostly Cloudy 610 m
2018/01/21 10:20 EGKB 211020Z 14007KT 1800 -SN BR SCT005 BKN020 01/00 Q1014
EGLF - Farnborough, United Kingdom
Distance from station: NW 35mi, 56km
Updated: Sun, 21-Jan-2018 10:20am GMT
Snow rain, Mostly cloudy
Snow rain, Mostly cloudy
 Wind from ESE
Wind: ESE 7 mph , 11 km/h
Temperature: 0°C
Wind Chill: -4°C
Dew Point: 0°C
Humidity: 100%
Barometer: 1014 hPa
Summary: Snow Rain
Clouds: Mostly Cloudy
Visibility: 2 miles , 4 km
Cloud details: Mostly Cloudy 152 m
2018/01/21 10:20 EGLF 211020Z 12006KT 4000 SNRA BKN005 00/00 Q1014
 
EGMD - Lydd Airport, United Kingdom
Distance from station: E 48mi, 77km
Updated: Sun, 21-Jan-2018 10:20am GMT
Light rain, Mostly cloudy
Light rain, Mostly cloudy
 Wind from varies
Wind: varies 1 mph , 2 km/h
Temperature: 3°C
Dew Point: 2°C
Humidity: 93%
Barometer: 1017 hPa
Summary: Light Rain
Clouds: Mostly Cloudy
Visibility: 4 miles , 7 km
Cloud details: Few Clouds 366 m
Mostly Cloudy 701 m
2018/01/21 10:20 EGMD 211020Z VRB01KT 7000 -RA FEW012 BKN023 03/02 Q1017
EGHI - Southampton Wx C, United Kingdom
Distance from station: W 50mi, 82km
Updated: Sun, 21-Jan-2018 10:20am GMT
Light rain, Mist, Mostly cloudy
Light rain, Mist, Mostly cloudy
 Wind from SE
Wind: SE 6 mph , 9 km/h
Temperature: 3°C
Wind Chill: 0°C
Dew Point: 3°C
Humidity: 100%
Barometer: 1013 hPa
Summary: Light rain, Mist
Clouds: Mostly Cloudy
Visibility: 2 miles , 4 km
Cloud details: Mostly Cloudy 152 m
2018/01/21 10:20 EGHI 211020Z 13005KT 090V160 4000 -RA BR BKN005 03/03 Q1013

Metar display script from Saratoga-Weather.org